This is the latest recevied weather packets stored in our database for station/object 9W2BQV-1. If no packets are shown the sender has not sent any weather packets the latest 10 day(s).
| Time | Temp. | Humidity | Pressure | Rain* | Wind** | Luminosity | Snow |
|---|---|---|---|---|---|---|---|
| 1777001689 | 48.89° C | 33% | 1009.6 hPa | - | - | - | - |
| 1776999888 | 47.22° C | 36% | 1009.6 hPa | - | - | - | - |
| 1776998087 | 45° C | 39% | 1009.8 hPa | - | - | - | - |
| 1776996286 | 41.67° C | 47% | 1009.9 hPa | - | - | - | - |
| 1776959465 | 39.44° C | 43% | 1008.5 hPa | - | - | - | - |
| 1776957664 | 40° C | 43% | 1008.5 hPa | - | - | - | - |
| 1776955863 | 40° C | 43% | 1008.4 hPa | - | - | - | - |
| 1776954062 | 40.56° C | 42% | 1008 hPa | - | - | - | - |
| 1776952262 | 40.56° C | 42% | 1007.8 hPa | - | - | - | - |
| 1776950461 | 41.11° C | 41% | 1007.1 hPa | - | - | - | - |
| 1776948660 | 41.67° C | 40% | 1006.4 hPa | - | - | - | - |
| 1776946859 | 42.22° C | 40% | 1006.1 hPa | - | - | - | - |
| 1776945058 | 43.33° C | 38% | 1005.4 hPa | - | - | - | - |
| 1776943258 | 43.89° C | 37% | 1005.4 hPa | - | - | - | - |
| 1776941457 | 45° C | 35% | 1005.1 hPa | - | - | - | - |
| 1776939656 | 46.11° C | 32% | 1005.1 hPa | - | - | - | - |
| 1776937855 | 47.78° C | 29% | 1004.7 hPa | - | - | - | - |
| 1776936054 | 48.33° C | 28% | 1004.6 hPa | - | - | - | - |
| 1776934254 | 49.44° C | 28% | 1004.9 hPa | - | - | - | - |
| 1776932453 | 50° C | 28% | 1005 hPa | - | - | - | - |
| 1776930652 | 50° C | 29% | 1005.5 hPa | - | - | - | - |
| 1776928851 | 48.33° C | 30% | 1005.8 hPa | - | - | - | - |
* Rain since midnight (hover to see other rain measurements)
** Current wind speed in m/s (hover to see current wind gust speed)